sensor_id;sensor_type;location;lat;lon;timestamp;pressure;altitude;pressure_sealevel;temperature;humidity
74075;BME280;62428;51.412;5.432;2023-05-12T00:01:54;101434.38;;;13.31;100.00
74075;BME280;62428;51.412;5.432;2023-05-12T00:04:20;101438.66;;;13.32;100.00
74075;BME280;62428;51.412;5.432;2023-05-12T00:06:45;101435.41;;;13.30;100.00
74075;BME280;62428;51.412;5.432;2023-05-12T00:09:10;101436.50;;;13.28;100.00
74075;BME280;62428;51.412;5.432;2023-05-12T00:11:36;101442.50;;;13.25;100.00
74075;BME280;62428;51.412;5.432;2023-05-12T00:14:02;101435.78;;;13.23;100.00
74075;BME280;62428;51.412;5.432;2023-05-12T00:16:27;101433.91;;;13.23;100.00
74075;BME280;62428;51.412;5.432;2023-05-12T00:18:52;101436.91;;;13.22;100.00
74075;BME280;62428;51.412;5.432;2023-05-12T00:21:18;101433.69;;;13.20;100.00
74075;BME280;62428;51.412;5.432;2023-05-12T00:23:43;101434.00;;;13.18;100.00
74075;BME280;62428;51.412;5.432;2023-05-12T00:26:08;101428.88;;;13.17;100.00
74075;BME280;62428;51.412;5.432;2023-05-12T00:28:34;101439.97;;;13.15;100.00
74075;BME280;62428;51.412;5.432;2023-05-12T00:31:01;101430.56;;;13.13;100.00
74075;BME280;62428;51.412;5.432;2023-05-12T00:33:27;101438.66;;;13.13;100.00
74075;BME280;62428;51.412;5.432;2023-05-12T00:35:53;101430.06;;;13.11;100.00
74075;BME280;62428;51.412;5.432;2023-05-12T00:38:18;101428.53;;;13.04;100.00
74075;BME280;62428;51.412;5.432;2023-05-12T00:40:43;101438.03;;;13.02;100.00
74075;BME280;62428;51.412;5.432;2023-05-12T00:43:09;101437.31;;;12.96;100.00
74075;BME280;62428;51.412;5.432;2023-05-12T00:45:35;101423.59;;;12.93;100.00
74075;BME280;62428;51.412;5.432;2023-05-12T00:48:01;101430.38;;;12.90;100.00
74075;BME280;62428;51.412;5.432;2023-05-12T00:50:27;101420.19;;;12.87;100.00
74075;BME280;62428;51.412;5.432;2023-05-12T00:52:53;101430.75;;;12.83;100.00
74075;BME280;62428;51.412;5.432;2023-05-12T00:55:18;101422.44;;;12.80;100.00
74075;BME280;62428;51.412;5.432;2023-05-12T00:57:44;101428.91;;;12.79;100.00
74075;BME280;62428;51.412;5.432;2023-05-12T01:00:10;101420.59;;;12.75;100.00
74075;BME280;62428;51.412;5.432;2023-05-12T01:02:35;101424.69;;;12.73;100.00
74075;BME280;62428;51.412;5.432;2023-05-12T01:05:01;101419.88;;;12.69;100.00
74075;BME280;62428;51.412;5.432;2023-05-12T01:07:30;101423.66;;;12.68;100.00
74075;BME280;62428;51.412;5.432;2023-05-12T01:09:56;101426.34;;;12.68;100.00
74075;BME280;62428;51.412;5.432;2023-05-12T01:12:23;101425.56;;;12.68;100.00
74075;BME280;62428;51.412;5.432;2023-05-12T01:14:49;101419.38;;;12.67;100.00
74075;BME280;62428;51.412;5.432;2023-05-12T01:17:18;101419.38;;;12.67;100.00
74075;BME280;62428;51.412;5.432;2023-05-12T01:19:48;101415.06;;;12.66;100.00
74075;BME280;62428;51.412;5.432;2023-05-12T01:22:15;101414.03;;;12.62;100.00
74075;BME280;62428;51.412;5.432;2023-05-12T01:27:11;101407.66;;;12.58;100.00
74075;BME280;62428;51.412;5.432;2023-05-12T01:29:37;101408.22;;;12.55;100.00
74075;BME280;62428;51.412;5.432;2023-05-12T01:32:03;101408.00;;;12.52;100.00
74075;BME280;62428;51.412;5.432;2023-05-12T01:34:28;101405.59;;;12.50;100.00
74075;BME280;62428;51.412;5.432;2023-05-12T01:36:54;101405.06;;;12.48;100.00
74075;BME280;62428;51.412;5.432;2023-05-12T01:39:19;101403.50;;;12.47;100.00
74075;BME280;62428;51.412;5.432;2023-05-12T01:41:45;101405.38;;;12.46;100.00
74075;BME280;62428;51.412;5.432;2023-05-12T01:44:10;101395.97;;;12.44;100.00
74075;BME280;62428;51.412;5.432;2023-05-12T01:46:35;101400.56;;;12.43;100.00
74075;BME280;62428;51.412;5.432;2023-05-12T01:49:01;101398.97;;;12.42;100.00
74075;BME280;62428;51.412;5.432;2023-05-12T01:51:26;101402.75;;;12.41;100.00
74075;BME280;62428;51.412;5.432;2023-05-12T01:53:51;101395.25;;;12.38;100.00
74075;BME280;62428;51.412;5.432;2023-05-12T01:56:16;101397.94;;;12.38;100.00
74075;BME280;62428;51.412;5.432;2023-05-12T01:58:42;101394.75;;;12.36;100.00
74075;BME280;62428;51.412;5.432;2023-05-12T02:01:07;101398.22;;;12.37;100.00
74075;BME280;62428;51.412;5.432;2023-05-12T02:03:33;101384.75;;;12.37;100.00
74075;BME280;62428;51.412;5.432;2023-05-12T02:05:58;101387.44;;;12.37;100.00
74075;BME280;62428;51.412;5.432;2023-05-12T02:08:24;101386.66;;;12.36;100.00
74075;BME280;62428;51.412;5.432;2023-05-12T02:10:49;101379.94;;;12.34;100.00
74075;BME280;62428;51.412;5.432;2023-05-12T02:13:15;101383.13;;;12.36;100.00
74075;BME280;62428;51.412;5.432;2023-05-12T02:15:40;101386.94;;;12.35;100.00
74075;BME280;62428;51.412;5.432;2023-05-12T02:18:05;101377.25;;;12.34;100.00
74075;BME280;62428;51.412;5.432;2023-05-12T02:20:31;101382.41;;;12.30;100.00
74075;BME280;62428;51.412;5.432;2023-05-12T02:22:57;101376.78;;;12.26;100.00
74075;BME280;62428;51.412;5.432;2023-05-12T02:25:22;101376.88;;;12.21;100.00
74075;BME280;62428;51.412;5.432;2023-05-12T02:27:47;101369.09;;;12.20;100.00
74075;BME280;62428;51.412;5.432;2023-05-12T02:30:13;101369.88;;;12.20;100.00
74075;BME280;62428;51.412;5.432;2023-05-12T02:32:39;101375.28;;;12.20;100.00
74075;BME280;62428;51.412;5.432;2023-05-12T02:35:05;101371.50;;;12.21;100.00
74075;BME280;62428;51.412;5.432;2023-05-12T02:37:31;101365.88;;;12.18;100.00
74075;BME280;62428;51.412;5.432;2023-05-12T02:39:57;101362.69;;;12.16;100.00
74075;BME280;62428;51.412;5.432;2023-05-12T02:42:22;101368.34;;;12.14;100.00
74075;BME280;62428;51.412;5.432;2023-05-12T02:44:47;101358.66;;;12.13;100.00
74075;BME280;62428;51.412;5.432;2023-05-12T02:47:13;101363.25;;;12.13;100.00
74075;BME280;62428;51.412;5.432;2023-05-12T02:49:38;101363.53;;;12.11;100.00
74075;BME280;62428;51.412;5.432;2023-05-12T02:52:04;101351.47;;;12.08;100.00
74075;BME280;62428;51.412;5.432;2023-05-12T02:54:29;101353.63;;;12.06;100.00
74075;BME280;62428;51.412;5.432;2023-05-12T02:56:55;101349.84;;;12.07;100.00
74075;BME280;62428;51.412;5.432;2023-05-12T02:59:22;101348.22;;;12.06;100.00
74075;BME280;62428;51.412;5.432;2023-05-12T03:01:47;101347.16;;;12.07;100.00
74075;BME280;62428;51.412;5.432;2023-05-12T03:04:13;101345.25;;;12.08;100.00
74075;BME280;62428;51.412;5.432;2023-05-12T03:06:38;101340.16;;;12.06;100.00
74075;BME280;62428;51.412;5.432;2023-05-12T03:09:03;101342.34;;;12.04;100.00
74075;BME280;62428;51.412;5.432;2023-05-12T03:11:29;101333.75;;;12.02;100.00
74075;BME280;62428;51.412;5.432;2023-05-12T03:13:54;101333.53;;;11.99;100.00
74075;BME280;62428;51.412;5.432;2023-05-12T03:16:19;101331.94;;;11.98;100.00
74075;BME280;62428;51.412;5.432;2023-05-12T03:18:45;101331.44;;;11.96;100.00
74075;BME280;62428;51.412;5.432;2023-05-12T03:21:10;101329.03;;;11.94;100.00
74075;BME280;62428;51.412;5.432;2023-05-12T03:23:36;101332.00;;;11.92;100.00
74075;BME280;62428;51.412;5.432;2023-05-12T03:26:01;101326.09;;;11.90;100.00
74075;BME280;62428;51.412;5.432;2023-05-12T03:28:26;101315.88;;;11.87;100.00
74075;BME280;62428;51.412;5.432;2023-05-12T03:30:52;101313.47;;;11.86;100.00
74075;BME280;62428;51.412;5.432;2023-05-12T03:33:18;101314.25;;;11.86;100.00
74075;BME280;62428;51.412;5.432;2023-05-12T03:35:43;101316.94;;;11.86;100.00
74075;BME280;62428;51.412;5.432;2023-05-12T03:38:08;101314.56;;;11.85;100.00
74075;BME280;62428;51.412;5.432;2023-05-12T03:40:34;101305.66;;;11.84;100.00
74075;BME280;62428;51.412;5.432;2023-05-12T03:42:59;101307.84;;;11.82;100.00
74075;BME280;62428;51.412;5.432;2023-05-12T03:45:25;101296.00;;;11.83;100.00
74075;BME280;62428;51.412;5.432;2023-05-12T03:47:50;101302.97;;;11.84;100.00
74075;BME280;62428;51.412;5.432;2023-05-12T03:50:16;101296.56;;;11.80;100.00
74075;BME280;62428;51.412;5.432;2023-05-12T03:52:41;101303.06;;;11.79;100.00
74075;BME280;62428;51.412;5.432;2023-05-12T03:55:07;101298.75;;;11.78;100.00
74075;BME280;62428;51.412;5.432;2023-05-12T03:57:33;101297.72;;;11.74;100.00
74075;BME280;62428;51.412;5.432;2023-05-12T04:00:00;101294.53;;;11.72;100.00
74075;BME280;62428;51.412;5.432;2023-05-12T04:02:26;101295.59;;;11.71;100.00
74075;BME280;62428;51.412;5.432;2023-05-12T04:04:51;101295.31;;;11.72;100.00
74075;BME280;62428;51.412;5.432;2023-05-12T04:07:16;101289.44;;;11.70;100.00
74075;BME280;62428;51.412;5.432;2023-05-12T04:09:42;101288.59;;;11.70;100.00
74075;BME280;62428;51.412;5.432;2023-05-12T04:12:08;101292.91;;;11.71;100.00
74075;BME280;62428;51.412;5.432;2023-05-12T04:14:34;101287.03;;;11.69;100.00
74075;BME280;62428;51.412;5.432;2023-05-12T04:16:59;101278.94;;;11.69;100.00
74075;BME280;62428;51.412;5.432;2023-05-12T04:19:25;101288.09;;;11.68;100.00
74075;BME280;62428;51.412;5.432;2023-05-12T04:21:50;101288.41;;;11.66;100.00
74075;BME280;62428;51.412;5.432;2023-05-12T04:24:15;101291.09;;;11.66;100.00
74075;BME280;62428;51.412;5.432;2023-05-12T04:26:41;101284.09;;;11.65;100.00
74075;BME280;62428;51.412;5.432;2023-05-12T04:29:06;101289.50;;;11.65;100.00
74075;BME280;62428;51.412;5.432;2023-05-12T04:31:31;101289.78;;;11.64;100.00
74075;BME280;62428;51.412;5.432;2023-05-12T04:33:57;101282.50;;;11.64;100.00
74075;BME280;62428;51.412;5.432;2023-05-12T04:36:22;101285.72;;;11.66;100.00
74075;BME280;62428;51.412;5.432;2023-05-12T04:38:47;101287.88;;;11.64;100.00
74075;BME280;62428;51.412;5.432;2023-05-12T04:41:13;101286.56;;;11.62;100.00
74075;BME280;62428;51.412;5.432;2023-05-12T04:43:38;101289.25;;;11.62;100.00
74075;BME280;62428;51.412;5.432;2023-05-12T04:46:03;101286.56;;;11.62;100.00
74075;BME280;62428;51.412;5.432;2023-05-12T04:48:29;101290.88;;;11.63;100.00
74075;BME280;62428;51.412;5.432;2023-05-12T04:50:57;101287.88;;;11.64;100.00
74075;BME280;62428;51.412;5.432;2023-05-12T04:53:22;101285.72;;;11.66;100.00
74075;BME280;62428;51.412;5.432;2023-05-12T04:55:47;101293.19;;;11.69;100.00
74075;BME280;62428;51.412;5.432;2023-05-12T04:58:14;101294.00;;;11.70;100.00
74075;BME280;62428;51.412;5.432;2023-05-12T05:00:39;101297.50;;;11.70;100.00
74075;BME280;62428;51.412;5.432;2023-05-12T05:03:05;101297.50;;;11.70;100.00
74075;BME280;62428;51.412;5.432;2023-05-12T05:05:30;101301.00;;;11.71;100.00
74075;BME280;62428;51.412;5.432;2023-05-12T05:07:56;101296.41;;;11.71;100.00
74075;BME280;62428;51.412;5.432;2023-05-12T05:10:22;101305.31;;;11.72;100.00
74075;BME280;62428;51.412;5.432;2023-05-12T05:12:47;101305.59;;;11.70;100.00
74075;BME280;62428;51.412;5.432;2023-05-12T05:15:12;101302.59;;;11.72;100.00
74075;BME280;62428;51.412;5.432;2023-05-12T05:17:37;101302.59;;;11.72;100.00
74075;BME280;62428;51.412;5.432;2023-05-12T05:20:03;101307.69;;;11.73;100.00
74075;BME280;62428;51.412;5.432;2023-05-12T05:22:28;101317.38;;;11.74;100.00
74075;BME280;62428;51.412;5.432;2023-05-12T05:24:54;101309.28;;;11.74;100.00
74075;BME280;62428;51.412;5.432;2023-05-12T05:27:19;101308.50;;;11.74;100.00
74075;BME280;62428;51.412;5.432;2023-05-12T05:29:45;101313.59;;;11.76;100.00
74075;BME280;62428;51.412;5.432;2023-05-12T05:32:10;101314.41;;;11.76;100.00
74075;BME280;62428;51.412;5.432;2023-05-12T05:34:35;101319.22;;;11.79;100.00
74075;BME280;62428;51.412;5.432;2023-05-12T05:37:01;101319.22;;;11.79;100.00
74075;BME280;62428;51.412;5.432;2023-05-12T05:39:26;101315.13;;;11.82;100.00
74075;BME280;62428;51.412;5.432;2023-05-12T05:41:55;101322.94;;;11.83;100.00
74075;BME280;62428;51.412;5.432;2023-05-12T05:44:20;101330.72;;;11.85;100.00
74075;BME280;62428;51.412;5.432;2023-05-12T05:46:45;101332.31;;;11.86;100.00
74075;BME280;62428;51.412;5.432;2023-05-12T05:49:11;101335.50;;;11.88;100.00
74075;BME280;62428;51.412;5.432;2023-05-12T05:51:36;101335.22;;;11.89;100.00
74075;BME280;62428;51.412;5.432;2023-05-12T05:54:01;101335.75;;;11.91;100.00
74075;BME280;62428;51.412;5.432;2023-05-12T05:56:27;101337.88;;;11.95;100.00
74075;BME280;62428;51.412;5.432;2023-05-12T05:58:52;101343.50;;;11.98;100.00
74075;BME280;62428;51.412;5.432;2023-05-12T06:01:17;101345.91;;;12.00;100.00
74075;BME280;62428;51.412;5.432;2023-05-12T06:03:43;101352.59;;;12.02;100.00
74075;BME280;62428;51.412;5.432;2023-05-12T06:06:08;101355.81;;;12.04;100.00
74075;BME280;62428;51.412;5.432;2023-05-12T06:08:33;101353.63;;;12.06;100.00
74075;BME280;62428;51.412;5.432;2023-05-12T06:10:59;101352.53;;;12.07;100.00
74075;BME280;62428;51.412;5.432;2023-05-12T06:13:24;101360.84;;;12.11;100.00
74075;BME280;62428;51.412;5.432;2023-05-12T06:15:49;101360.28;;;12.14;100.00
74075;BME280;62428;51.412;5.432;2023-05-12T06:18:15;101363.47;;;12.16;100.00
74075;BME280;62428;51.412;5.432;2023-05-12T06:20:40;101372.84;;;12.19;100.00
74075;BME280;62428;51.412;5.432;2023-05-12T06:23:06;101377.69;;;12.22;100.00
74075;BME280;62428;51.412;5.432;2023-05-12T06:25:31;101381.38;;;12.26;100.00
74075;BME280;62428;51.412;5.432;2023-05-12T06:27:57;101384.59;;;12.28;100.00
74075;BME280;62428;51.412;5.432;2023-05-12T06:30:22;101386.16;;;12.34;100.00
74075;BME280;62428;51.412;5.432;2023-05-12T06:32:48;101382.56;;;12.39;100.00
74075;BME280;62428;51.412;5.432;2023-05-12T06:35:13;101385.19;;;12.44;100.00
74075;BME280;62428;51.412;5.432;2023-05-12T06:37:38;101395.41;;;12.47;100.00
74075;BME280;62428;51.412;5.432;2023-05-12T06:40:04;101398.31;;;12.50;100.00
74075;BME280;62428;51.412;5.432;2023-05-12T06:42:30;101398.84;;;12.53;100.00
74075;BME280;62428;51.412;5.432;2023-05-12T06:44:55;101397.94;;;12.57;100.00
74075;BME280;62428;51.412;5.432;2023-05-12T06:47:21;101403.25;;;12.62;100.00
74075;BME280;62428;51.412;5.432;2023-05-12T06:49:46;101398.38;;;12.64;100.00
74075;BME280;62428;51.412;5.432;2023-05-12T06:52:11;101402.41;;;12.67;100.00
74075;BME280;62428;51.412;5.432;2023-05-12T06:54:36;101399.38;;;12.68;100.00
74075;BME280;62428;51.412;5.432;2023-05-12T06:57:02;101411.78;;;12.69;100.00
74075;BME280;62428;51.412;5.432;2023-05-12T06:59:29;101413.09;;;12.72;100.00
74075;BME280;62428;51.412;5.432;2023-05-12T07:01:54;101413.91;;;12.73;100.00
74075;BME280;62428;51.412;5.432;2023-05-12T07:04:20;101414.41;;;12.75;100.00
74075;BME280;62428;51.412;5.432;2023-05-12T07:06:46;101417.13;;;12.75;100.00
74075;BME280;62428;51.412;5.432;2023-05-12T07:09:11;101411.44;;;12.76;100.00
74075;BME280;62428;51.412;5.432;2023-05-12T07:11:38;101425.13;;;12.80;100.00
74075;BME280;62428;51.412;5.432;2023-05-12T07:14:03;101421.56;;;12.84;100.00
74075;BME280;62428;51.412;5.432;2023-05-12T07:16:29;101431.47;;;12.89;100.00
74075;BME280;62428;51.412;5.432;2023-05-12T07:18:54;101429.78;;;12.93;100.00
74075;BME280;62428;51.412;5.432;2023-05-12T07:21:19;101426.00;;;12.94;100.00
74075;BME280;62428;51.412;5.432;2023-05-12T07:23:46;101437.31;;;12.96;100.00
74075;BME280;62428;51.412;5.432;2023-05-12T07:26:11;101437.81;;;12.98;100.00
74075;BME280;62428;51.412;5.432;2023-05-12T07:28:36;101437.53;;;13.00;100.00
74075;BME280;62428;51.412;5.432;2023-05-12T07:31:06;101435.81;;;13.04;100.00
74075;BME280;62428;51.412;5.432;2023-05-12T07:33:33;101440.03;;;13.10;100.00
74075;BME280;62428;51.412;5.432;2023-05-12T07:35:59;101442.94;;;13.14;100.00
74075;BME280;62428;51.412;5.432;2023-05-12T07:38:24;101436.69;;;13.18;100.00
74075;BME280;62428;51.412;5.432;2023-05-12T07:40:50;101440.38;;;13.22;100.00
74075;BME280;62428;51.412;5.432;2023-05-12T07:43:16;101446.50;;;13.28;100.00
74075;BME280;62428;51.412;5.432;2023-05-12T07:45:42;101437.56;;;13.33;100.00
74075;BME280;62428;51.412;5.432;2023-05-12T07:48:07;101441.19;;;13.42;100.00
74075;BME280;62428;51.412;5.432;2023-05-12T07:50:33;101448.81;;;13.54;100.00
74075;BME280;62428;51.412;5.432;2023-05-12T07:52:58;101448.63;;;13.64;100.00
74075;BME280;62428;51.412;5.432;2023-05-12T07:55:23;101450.34;;;13.74;100.00
74075;BME280;62428;51.412;5.432;2023-05-12T07:57:49;101457.97;;;13.86;99.88
74075;BME280;62428;51.412;5.432;2023-05-12T08:00:15;101463.25;;;13.91;98.02
74075;BME280;62428;51.412;5.432;2023-05-12T08:02:41;101461.78;;;13.98;96.61
74075;BME280;62428;51.412;5.432;2023-05-12T08:05:08;101451.25;;;14.11;95.33
74075;BME280;62428;51.412;5.432;2023-05-12T08:07:34;101459.06;;;14.12;95.69
74075;BME280;62428;51.412;5.432;2023-05-12T08:10:00;101458.09;;;14.08;96.80
74075;BME280;62428;51.412;5.432;2023-05-12T08:12:25;101462.50;;;14.04;96.59
74075;BME280;62428;51.412;5.432;2023-05-12T08:14:50;101467.69;;;14.00;95.89
74075;BME280;62428;51.412;5.432;2023-05-12T08:17:16;101471.56;;;13.94;96.20
74075;BME280;62428;51.412;5.432;2023-05-12T08:19:41;101471.69;;;13.89;96.29
74075;BME280;62428;51.412;5.432;2023-05-12T08:22:06;101473.06;;;13.87;98.07
74075;BME280;62428;51.412;5.432;2023-05-12T08:24:32;101473.66;;;13.83;97.28
74075;BME280;62428;51.412;5.432;2023-05-12T08:26:57;101480.16;;;13.82;95.95
74075;BME280;62428;51.412;5.432;2023-05-12T08:29:22;101484.78;;;13.82;96.59
74075;BME280;62428;51.412;5.432;2023-05-12T08:31:48;101477.75;;;13.81;95.97
74075;BME280;62428;51.412;5.432;2023-05-12T08:34:13;101481.47;;;13.85;96.98
74075;BME280;62428;51.412;5.432;2023-05-12T08:36:39;101478.88;;;13.94;96.84
74075;BME280;62428;51.412;5.432;2023-05-12T08:39:05;101478.91;;;14.08;96.39
74075;BME280;62428;51.412;5.432;2023-05-12T08:41:51;101483.78;;;14.19;95.78
74075;BME280;62428;51.412;5.432;2023-05-12T08:44:18;101483.59;;;14.30;93.20
74075;BME280;62428;51.412;5.432;2023-05-12T08:46:44;101489.59;;;14.54;93.71
74075;BME280;62428;51.412;5.432;2023-05-12T08:49:13;101490.41;;;14.69;92.70
74075;BME280;62428;51.412;5.432;2023-05-12T08:51:42;101494.41;;;14.71;91.17
74075;BME280;62428;51.412;5.432;2023-05-12T08:54:11;101502.53;;;14.71;92.73
74075;BME280;62428;51.412;5.432;2023-05-12T08:56:38;101500.41;;;14.68;90.41
74075;BME280;62428;51.412;5.432;2023-05-12T08:59:04;101502.81;;;14.70;89.17
74075;BME280;62428;51.412;5.432;2023-05-12T09:01:33;101506.22;;;14.75;89.28
74075;BME280;62428;51.412;5.432;2023-05-12T09:03:59;101502.78;;;14.84;90.39
74075;BME280;62428;51.412;5.432;2023-05-12T09:06:24;101505.56;;;14.92;89.85
74075;BME280;62428;51.412;5.432;2023-05-12T09:08:50;101505.69;;;14.87;88.28
74075;BME280;62428;51.412;5.432;2023-05-12T09:11:16;101507.09;;;14.85;89.67
74075;BME280;62428;51.412;5.432;2023-05-12T09:14:01;101506.50;;;14.88;88.91
74075;BME280;62428;51.412;5.432;2023-05-12T09:16:32;101513.50;;;14.89;86.60
74075;BME280;62428;51.412;5.432;2023-05-12T09:19:00;101516.28;;;14.97;84.62
74075;BME280;62428;51.412;5.432;2023-05-12T09:21:27;101513.47;;;15.03;84.99
74075;BME280;62428;51.412;5.432;2023-05-12T09:26:25;101517.94;;;15.07;83.86
74075;BME280;62428;51.412;5.432;2023-05-12T09:28:55;101516.38;;;15.06;84.11
74075;BME280;62428;51.412;5.432;2023-05-12T09:31:29;101511.16;;;15.10;85.14
74075;BME280;62428;51.412;5.432;2023-05-12T09:33:54;101518.81;;;15.16;84.06
74075;BME280;62428;51.412;5.432;2023-05-12T09:36:22;101522.84;;;15.19;83.93
74075;BME280;62428;51.412;5.432;2023-05-12T09:39:01;101526.84;;;15.22;83.12
74075;BME280;62428;51.412;5.432;2023-05-12T09:41:50;101524.00;;;15.27;84.96
74075;BME280;62428;51.412;5.432;2023-05-12T09:44:15;101519.94;;;15.38;81.51
74075;BME280;62428;51.412;5.432;2023-05-12T09:46:41;101522.44;;;15.48;80.71
74075;BME280;62428;51.412;5.432;2023-05-12T09:49:07;101525.31;;;15.52;79.10
74075;BME280;62428;51.412;5.432;2023-05-12T09:51:33;101520.69;;;15.52;78.47
74075;BME280;62428;51.412;5.432;2023-05-12T09:53:58;101528.69;;;15.57;80.29
74075;BME280;62428;51.412;5.432;2023-05-12T09:56:26;101524.94;;;15.67;79.66
74075;BME280;62428;51.412;5.432;2023-05-12T09:58:54;101527.78;;;15.85;79.92
74075;BME280;62428;51.412;5.432;2023-05-12T10:01:21;101519.25;;;16.00;78.36
74075;BME280;62428;51.412;5.432;2023-05-12T10:03:51;101527.66;;;16.30;79.75
74075;BME280;62428;51.412;5.432;2023-05-12T10:06:24;101526.72;;;16.34;76.58
74075;BME280;62428;51.412;5.432;2023-05-12T10:09:10;101527.16;;;16.28;77.51
74075;BME280;62428;51.412;5.432;2023-05-12T10:11:40;101532.09;;;16.26;75.08
74075;BME280;62428;51.412;5.432;2023-05-12T10:14:05;101533.25;;;16.33;76.48
74075;BME280;62428;51.412;5.432;2023-05-12T10:16:34;101528.16;;;16.41;77.71
74075;BME280;62428;51.412;5.432;2023-05-12T10:19:01;101527.50;;;16.35;76.17
74075;BME280;62428;51.412;5.432;2023-05-12T10:21:27;101538.50;;;16.30;75.83
74075;BME280;62428;51.412;5.432;2023-05-12T10:23:53;101527.34;;;16.31;74.00
74075;BME280;62428;51.412;5.432;2023-05-12T10:26:18;101535.78;;;16.30;77.10
74075;BME280;62428;51.412;5.432;2023-05-12T10:28:44;101538.84;;;16.28;76.10
74075;BME280;62428;51.412;5.432;2023-05-12T10:31:10;101535.00;;;16.29;73.57
74075;BME280;62428;51.412;5.432;2023-05-12T10:33:36;101531.06;;;16.44;73.91
74075;BME280;62428;51.412;5.432;2023-05-12T10:36:01;101526.34;;;16.76;74.16
74075;BME280;62428;51.412;5.432;2023-05-12T10:38:35;101526.41;;;17.02;73.19
74075;BME280;62428;51.412;5.432;2023-05-12T10:41:02;101532.63;;;17.12;69.98
74075;BME280;62428;51.412;5.432;2023-05-12T10:43:38;101533.59;;;17.07;71.90
74075;BME280;62428;51.412;5.432;2023-05-12T10:48:50;101530.41;;;16.96;69.94
74075;BME280;62428;51.412;5.432;2023-05-12T10:54:09;101540.69;;;16.68;70.62
74075;BME280;62428;51.412;5.432;2023-05-12T10:59:22;101535.44;;;16.71;71.46
74075;BME280;62428;51.412;5.432;2023-05-12T11:02:00;101539.97;;;16.85;70.98
74075;BME280;62428;51.412;5.432;2023-05-12T11:07:03;101540.94;;;17.06;66.31
74075;BME280;62428;51.412;5.432;2023-05-12T11:09:29;101543.66;;;17.24;67.68
74075;BME280;62428;51.412;5.432;2023-05-12T11:11:55;101551.16;;;17.53;67.82
74075;BME280;62428;51.412;5.432;2023-05-12T11:14:20;101552.41;;;17.64;66.43
74075;BME280;62428;51.412;5.432;2023-05-12T11:16:46;101547.19;;;17.51;65.64
74075;BME280;62428;51.412;5.432;2023-05-12T11:19:11;101565.06;;;17.43;67.56
74075;BME280;62428;51.412;5.432;2023-05-12T11:21:37;101550.22;;;17.32;65.71
74075;BME280;62428;51.412;5.432;2023-05-12T11:24:03;101563.13;;;17.17;66.42
74075;BME280;62428;51.412;5.432;2023-05-12T11:26:29;101566.19;;;17.07;66.97
74075;BME280;62428;51.412;5.432;2023-05-12T11:28:57;101572.38;;;16.99;67.12
74075;BME280;62428;51.412;5.432;2023-05-12T11:31:23;101568.09;;;17.15;69.71
74075;BME280;62428;51.412;5.432;2023-05-12T11:33:49;101571.13;;;17.48;66.05
74075;BME280;62428;51.412;5.432;2023-05-12T11:36:17;101566.16;;;17.77;66.73
74075;BME280;62428;51.412;5.432;2023-05-12T11:38:51;101567.41;;;17.97;65.36
74075;BME280;62428;51.412;5.432;2023-05-12T11:41:21;101576.31;;;18.15;63.29
74075;BME280;62428;51.412;5.432;2023-05-12T11:43:48;101571.75;;;18.36;62.93
74075;BME280;62428;51.412;5.432;2023-05-12T11:46:28;101568.94;;;18.54;64.66
74075;BME280;62428;51.412;5.432;2023-05-12T11:48:57;101570.31;;;18.69;63.99
74075;BME280;62428;51.412;5.432;2023-05-12T11:51:23;101578.53;;;18.90;63.21
74075;BME280;62428;51.412;5.432;2023-05-12T11:53:51;101569.69;;;18.93;62.90
74075;BME280;62428;51.412;5.432;2023-05-12T11:56:18;101579.69;;;18.80;62.89
74075;BME280;62428;51.412;5.432;2023-05-12T11:58:54;101583.47;;;18.58;63.29
74075;BME280;62428;51.412;5.432;2023-05-12T12:01:20;101580.72;;;18.37;62.37
74075;BME280;62428;51.412;5.432;2023-05-12T12:03:47;101581.34;;;18.34;63.37
74075;BME280;62428;51.412;5.432;2023-05-12T12:06:13;101590.84;;;18.57;64.79
74075;BME280;62428;51.412;5.432;2023-05-12T12:08:51;101582.94;;;18.73;65.21
74075;BME280;62428;51.412;5.432;2023-05-12T12:11:18;101594.97;;;18.63;62.11
74075;BME280;62428;51.412;5.432;2023-05-12T12:13:51;101594.75;;;18.48;63.98
74075;BME280;62428;51.412;5.432;2023-05-12T12:16:27;101603.72;;;18.39;64.69
74075;BME280;62428;51.412;5.432;2023-05-12T12:18:53;101602.19;;;18.30;63.40
74075;BME280;62428;51.412;5.432;2023-05-12T12:21:19;101604.75;;;18.26;64.00
74075;BME280;62428;51.412;5.432;2023-05-12T12:23:45;101601.38;;;18.29;64.22
74075;BME280;62428;51.412;5.432;2023-05-12T12:26:11;101616.72;;;18.34;63.45
74075;BME280;62428;51.412;5.432;2023-05-12T12:28:36;101605.03;;;18.42;64.32
74075;BME280;62428;51.412;5.432;2023-05-12T12:31:02;101607.97;;;18.58;65.51
74075;BME280;62428;51.412;5.432;2023-05-12T12:33:27;101602.78;;;18.74;64.67
74075;BME280;62428;51.412;5.432;2023-05-12T12:35:52;101612.09;;;18.73;63.32
74075;BME280;62428;51.412;5.432;2023-05-12T12:38:18;101622.41;;;18.58;61.75
74075;BME280;62428;51.412;5.432;2023-05-12T12:40:44;101619.88;;;18.44;62.84
74075;BME280;62428;51.412;5.432;2023-05-12T12:43:09;101623.28;;;18.33;60.84
74075;BME280;62428;51.412;5.432;2023-05-12T12:45:34;101612.28;;;18.20;62.84
74075;BME280;62428;51.412;5.432;2023-05-12T12:48:00;101617.91;;;18.15;63.02
74075;BME280;62428;51.412;5.432;2023-05-12T12:50:26;101614.69;;;18.13;63.72
74075;BME280;62428;51.412;5.432;2023-05-12T12:52:51;101619.81;;;18.15;64.19
74075;BME280;62428;51.412;5.432;2023-05-12T12:55:17;101620.44;;;18.20;62.56